Time;durP1;ratioP1;P1;durP2;ratioP2;P2;SDS_P1;SDS_P2;PMS_P1;PMS_P2;Temp;Humidity;BMP_temperature;BMP_pressure;BME280_temperature;BME280_humidity;BME280_pressure;Samples;Min_cycle;Max_cycle;Signal;HPM_P1;HPM_P2
2021/09/19 00:00:10;;;;;;;3.40;2.17;;;;;;;14.79;66.43;98514.54;1781985;80;21496;-42
2021/09/19 00:02:37;;;;;;;4.47;2.05;;;;;;;14.77;66.27;98518.25;1781760;80;21021;-41
2021/09/19 00:05:05;;;;;;;2.70;1.95;;;;;;;14.71;66.47;98516.59;1783388;80;21029;-42
2021/09/19 00:07:32;;;;;;;3.08;2.15;;;;;;;14.67;66.59;98513.10;1774797;80;21103;-42
2021/09/19 00:09:59;;;;;;;2.42;1.70;;;;;;;14.60;66.77;98511.05;1782190;80;20977;-41
2021/09/19 00:12:26;;;;;;;2.83;1.70;;;;;;;14.58;66.79;98510.09;1781841;80;20950;-42
2021/09/19 00:14:54;;;;;;;3.33;1.87;;;;;;;14.56;66.82;98516.55;1782140;80;21084;-42
2021/09/19 00:17:21;;;;;;;3.15;2.00;;;;;;;14.52;66.76;98514.46;1782142;80;21033;-41
2021/09/19 00:19:49;;;;;;;2.77;1.90;;;;;;;14.46;66.89;98520.75;1783316;80;21053;-41
2021/09/19 00:22:15;;;;;;;3.62;1.75;;;;;;;14.40;67.03;98526.45;1757781;79;21563;-42
2021/09/19 00:24:42;;;;;;;3.08;1.57;;;;;;;14.34;67.23;98530.95;1767028;80;21022;-41
2021/09/19 00:27:10;;;;;;;1.87;1.67;;;;;;;14.32;67.15;98526.52;1767054;80;21009;-42
2021/09/19 00:29:37;;;;;;;2.65;1.70;;;;;;;14.29;67.13;98523.80;1778390;80;21061;-41
2021/09/19 00:32:07;;;;;;;2.45;1.50;;;;;;;14.31;67.03;98520.09;1766446;80;21097;-41
2021/09/19 00:34:33;;;;;;;4.70;1.80;;;;;;;14.32;67.04;98515.61;1767411;80;21010;-41
2021/09/19 00:37:00;;;;;;;2.17;1.85;;;;;;;14.31;67.30;98519.50;1747793;80;21001;-41
2021/09/19 00:39:26;;;;;;;4.05;1.77;;;;;;;14.31;67.30;98518.73;1761945;80;20980;-42
2021/09/19 00:41:53;;;;;;;4.15;1.72;;;;;;;14.32;67.27;98523.78;1755842;80;21491;-42
2021/09/19 00:44:26;;;;;;;1.85;1.72;;;;;;;14.31;67.17;98523.59;1736612;81;21822;-41
2021/09/19 00:46:55;;;;;;;4.05;1.50;;;;;;;14.33;67.00;98517.13;1736271;82;21496;-41
2021/09/19 00:49:23;;;;;;;2.05;1.50;;;;;;;14.37;67.08;98517.73;1750457;80;20918;-41
2021/09/19 00:51:52;;;;;;;2.77;1.72;;;;;;;14.42;66.92;98518.66;1756597;80;21002;-41
2021/09/19 00:54:20;;;;;;;3.67;1.98;;;;;;;14.39;66.87;98520.81;1720545;82;21032;-41
2021/09/19 00:56:55;;;;;;;3.20;2.00;;;;;;;14.31;66.89;98521.45;1687857;82;20911;-41
2021/09/19 00:59:23;;;;;;;2.98;1.77;;;;;;;14.23;67.23;98524.81;1756490;80;20946;-41
2021/09/19 01:01:52;;;;;;;3.45;1.72;;;;;;;14.18;67.52;98521.78;1777609;80;20936;-41
2021/09/19 01:04:20;;;;;;;3.33;1.80;;;;;;;14.18;67.66;98526.64;1788199;80;20917;-41
2021/09/19 01:06:47;;;;;;;2.70;1.62;;;;;;;14.26;67.58;98528.12;1756346;80;21033;-41
2021/09/19 01:09:15;;;;;;;2.50;1.95;;;;;;;14.29;67.50;98527.30;1783071;80;21551;-41
2021/09/19 01:11:43;;;;;;;4.83;2.25;;;;;;;14.29;67.43;98530.61;1777742;80;21082;-42
2021/09/19 01:14:12;;;;;;;3.52;2.00;;;;;;;14.27;67.61;98524.22;1756792;80;21523;-42
2021/09/19 01:16:39;;;;;;;2.50;1.72;;;;;;;14.30;67.43;98524.77;1747612;81;21061;-41
2021/09/19 01:19:06;;;;;;;5.08;2.30;;;;;;;14.33;67.50;98523.17;1759441;80;21069;-42
2021/09/19 01:21:33;;;;;;;3.30;1.80;;;;;;;14.41;67.35;98515.73;1777066;80;21384;-42
2021/09/19 01:24:03;;;;;;;2.58;1.98;;;;;;;14.49;67.27;98517.20;1787625;80;20968;-42
2021/09/19 01:26:31;;;;;;;3.40;1.80;;;;;;;14.55;66.94;98525.14;1769911;80;20936;-41
2021/09/19 01:28:58;;;;;;;2.55;1.85;;;;;;;14.53;66.76;98515.98;1787661;80;21381;-42
2021/09/19 01:31:25;;;;;;;3.10;1.90;;;;;;;14.51;66.79;98512.13;1784509;80;21028;-42
2021/09/19 01:33:54;;;;;;;2.37;1.90;;;;;;;14.54;66.71;98516.77;1770204;80;20929;-42
2021/09/19 01:36:20;;;;;;;2.35;1.90;;;;;;;14.56;66.64;98507.59;1787835;80;21000;-42
2021/09/19 01:38:47;;;;;;;2.62;1.60;;;;;;;14.57;66.58;98510.52;1781962;80;21555;-42
2021/09/19 01:41:18;;;;;;;2.42;1.57;;;;;;;14.61;66.38;98508.52;1787731;80;20944;-41
2021/09/19 01:43:45;;;;;;;2.10;1.55;;;;;;;14.59;66.33;98505.41;1786650;80;20997;-41
2021/09/19 01:46:12;;;;;;;2.52;1.80;;;;;;;14.57;66.53;98503.08;1787873;80;21120;-41
2021/09/19 01:48:41;;;;;;;2.75;1.75;;;;;;;14.54;66.53;98503.91;1786303;80;21052;-41
2021/09/19 01:51:08;;;;;;;2.60;1.70;;;;;;;14.46;66.65;98504.39;1788093;80;20992;-41
2021/09/19 01:53:39;;;;;;;2.92;1.95;;;;;;;14.39;66.83;98503.86;1784126;79;21023;-42
2021/09/19 01:56:07;;;;;;;4.70;2.00;;;;;;;14.31;66.85;98501.78;1782604;80;21029;-41
2021/09/19 01:58:51;;;;;;;2.35;1.72;;;;;;;14.27;66.95;98508.45;1758412;79;20980;-42
2021/09/19 02:01:24;;;;;;;1.95;1.60;;;;;;;14.25;67.13;98507.48;1770547;80;20928;-42
2021/09/19 02:03:49;;;;;;;2.70;1.80;;;;;;;14.30;67.07;98511.13;1784182;80;21008;-42
2021/09/19 02:06:16;;;;;;;4.78;2.17;;;;;;;14.33;66.94;98501.36;1781839;80;21065;-42
2021/09/19 02:08:45;;;;;;;2.33;1.80;;;;;;;14.32;66.96;98499.25;1787361;80;21052;-41
2021/09/19 02:11:14;;;;;;;2.27;1.70;;;;;;;14.35;67.12;98497.06;1787890;79;21049;-42
2021/09/19 02:13:43;;;;;;;3.77;2.00;;;;;;;14.44;67.39;98495.24;1778871;79;21520;-41
2021/09/19 02:16:10;;;;;;;3.37;1.57;;;;;;;14.52;67.64;98493.23;1756778;81;21048;-42
2021/09/19 02:18:38;;;;;;;5.15;1.67;;;;;;;14.62;67.59;98490.98;1756492;81;21025;-42
2021/09/19 02:21:07;;;;;;;3.87;1.52;;;;;;;14.74;67.29;98491.80;1767930;80;21038;-41
2021/09/19 02:23:34;;;;;;;1.80;1.50;;;;;;;14.83;67.08;98490.71;1773884;80;21134;-42
2021/09/19 02:26:01;;;;;;;2.98;1.80;;;;;;;14.90;67.04;98496.09;1771945;80;21088;-42
2021/09/19 02:28:29;;;;;;;4.05;1.82;;;;;;;14.94;66.91;98485.13;1773604;80;21563;-41
2021/09/19 02:30:55;;;;;;;5.28;2.08;;;;;;;14.97;66.56;98488.39;1773951;80;21018;-41
2021/09/19 02:33:24;;;;;;;3.08;1.67;;;;;;;14.98;66.58;98494.81;1773708;80;21008;-42
2021/09/19 02:35:51;;;;;;;4.60;1.57;;;;;;;14.99;66.58;98493.64;1776911;80;21834;-41
2021/09/19 02:38:19;;;;;;;2.98;1.47;;;;;;;15.05;66.36;98492.59;1773324;80;21528;-41
2021/09/19 02:40:47;;;;;;;2.90;1.90;;;;;;;15.11;66.28;98493.07;1773759;80;21528;-42
2021/09/19 02:43:14;;;;;;;4.28;1.62;;;;;;;15.15;66.14;98493.80;1772493;80;21045;-41
2021/09/19 02:45:42;;;;;;;2.52;1.87;;;;;;;15.18;66.10;98496.31;1772179;80;21065;-41
2021/09/19 02:48:08;;;;;;;3.12;1.70;;;;;;;15.19;66.07;98494.55;1770289;80;21145;-42
2021/09/19 02:50:35;;;;;;;3.02;2.00;;;;;;;15.19;66.03;98491.81;1773769;80;21002;-42
2021/09/19 02:53:01;;;;;;;2.35;2.00;;;;;;;15.18;65.92;98492.99;1764502;80;20933;-41
2021/09/19 02:55:28;;;;;;;3.20;2.22;;;;;;;15.15;66.00;98489.70;1759932;80;21073;-42
2021/09/19 02:57:55;;;;;;;2.05;1.80;;;;;;;15.18;66.12;98488.89;1772600;80;20991;-42
2021/09/19 03:00:22;;;;;;;2.75;1.90;;;;;;;15.23;66.08;98493.13;1773712;80;21093;-42
2021/09/19 03:02:49;;;;;;;2.10;1.65;;;;;;;15.26;65.93;98492.87;1773681;80;21560;-42
2021/09/19 03:05:17;;;;;;;4.62;1.87;;;;;;;15.25;65.90;98495.45;1774064;80;21022;-42
2021/09/19 03:07:45;;;;;;;2.40;1.80;;;;;;;15.27;66.04;98491.70;1771350;80;22050;-42
2021/09/19 03:10:12;;;;;;;2.55;1.90;;;;;;;15.28;65.99;98484.47;1770571;80;21077;-42
2021/09/19 03:12:39;;;;;;;3.27;2.20;;;;;;;15.31;65.95;98486.95;1764193;80;21608;-42
2021/09/19 03:15:07;;;;;;;2.90;2.05;;;;;;;15.28;66.04;98491.89;1773797;80;20993;-41
2021/09/19 03:17:34;;;;;;;2.02;1.65;;;;;;;15.31;66.17;98492.42;1770957;80;21012;-42
2021/09/19 03:20:04;;;;;;;1.90;1.80;;;;;;;15.34;66.20;98499.80;1773088;80;21559;-42
2021/09/19 03:22:30;;;;;;;1.90;1.72;;;;;;;15.36;66.06;98494.69;1773651;80;21052;-42
2021/09/19 03:24:59;;;;;;;2.77;1.65;;;;;;;15.06;66.17;98444.39;1768943;80;21003;-42
2021/09/19 03:27:27;;;;;;;3.47;1.80;;;;;;;15.36;66.19;98495.47;1758538;80;20951;-42
2021/09/19 03:29:55;;;;;;;3.33;2.17;;;;;;;15.35;66.29;98490.41;1763136;80;20970;-42
2021/09/19 03:32:21;;;;;;;2.02;1.80;;;;;;;15.33;66.35;98495.52;1765620;80;21069;-42
2021/09/19 03:34:48;;;;;;;3.02;2.08;;;;;;;15.31;66.48;98499.25;1773071;80;21528;-42
2021/09/19 03:37:16;;;;;;;4.53;2.00;;;;;;;15.30;66.38;98493.63;1773745;80;21493;-42
2021/09/19 03:39:43;;;;;;;1.95;1.60;;;;;;;15.30;66.46;98494.99;1773624;80;21022;-41
2021/09/19 03:42:11;;;;;;;2.70;1.92;;;;;;;15.36;66.75;98493.32;1771861;80;21009;-42
2021/09/19 03:44:38;;;;;;;3.33;2.00;;;;;;;15.36;66.67;98496.05;1769073;80;21100;-41
2021/09/19 03:47:05;;;;;;;3.42;2.35;;;;;;;15.37;66.55;98492.14;1768579;80;21076;-41
2021/09/19 03:49:32;;;;;;;2.47;1.80;;;;;;;15.36;66.67;98494.10;1770781;79;21144;-42
2021/09/19 03:51:59;;;;;;;3.70;1.98;;;;;;;15.37;66.74;98496.24;1765413;80;21070;-42
2021/09/19 03:54:26;;;;;;;2.75;1.87;;;;;;;15.35;66.65;98487.09;1774059;80;21006;-41
2021/09/19 03:56:52;;;;;;;1.80;1.65;;;;;;;15.37;66.66;98489.41;1752819;80;21520;-42
2021/09/19 03:59:20;;;;;;;3.05;1.85;;;;;;;15.42;66.50;98483.48;1773919;80;21005;-41
2021/09/19 04:01:47;;;;;;;2.12;1.70;;;;;;;15.42;66.44;98482.13;1773452;80;21191;-41
2021/09/19 04:04:13;;;;;;;2.90;1.92;;;;;;;15.41;66.24;98479.20;1751900;80;21522;-42
2021/09/19 04:06:41;;;;;;;3.58;1.72;;;;;;;15.42;66.16;98484.86;1743239;82;21082;-42
2021/09/19 04:09:09;;;;;;;2.52;1.82;;;;;;;15.42;66.21;98481.53;1766997;80;20981;-42
2021/09/19 04:11:36;;;;;;;4.40;2.00;;;;;;;15.42;66.09;98487.59;1773829;80;21036;-41
2021/09/19 04:14:02;;;;;;;2.37;1.67;;;;;;;15.41;66.08;98494.23;1774465;80;21182;-42
2021/09/19 04:16:30;;;;;;;3.17;1.67;;;;;;;15.41;65.99;98492.27;1773987;80;21496;-41
2021/09/19 04:18:56;;;;;;;2.90;1.70;;;;;;;15.46;65.76;98493.17;1774380;80;20976;-42
2021/09/19 04:21:23;;;;;;;1.87;1.32;;;;;;;15.48;65.06;98491.41;1776858;80;21033;-42
2021/09/19 04:23:51;;;;;;;3.90;1.60;;;;;;;15.46;64.40;98484.20;1776164;80;21506;-41
2021/09/19 04:26:17;;;;;;;3.15;1.47;;;;;;;15.46;64.19;98490.45;1766232;80;21128;-42
2021/09/19 04:28:45;;;;;;;4.22;1.98;;;;;;;15.44;64.17;98486.59;1782769;80;21000;-41
2021/09/19 04:31:13;;;;;;;2.45;1.70;;;;;;;15.44;64.08;98485.23;1781999;80;20941;-41
2021/09/19 04:33:41;;;;;;;2.12;1.57;;;;;;;15.43;64.04;98481.72;1770570;80;21028;-42
2021/09/19 04:36:09;;;;;;;1.82;1.30;;;;;;;15.43;64.12;98478.21;1777749;80;21091;-41
2021/09/19 04:38:37;;;;;;;2.77;1.25;;;;;;;15.40;64.22;98485.26;1781071;79;21531;-41
2021/09/19 04:41:03;;;;;;;2.22;1.22;;;;;;;15.42;64.32;98482.13;1781862;80;21040;-41
2021/09/19 04:43:31;;;;;;;2.77;1.67;;;;;;;15.44;64.31;98489.33;1782218;80;20929;-42
2021/09/19 04:45:58;;;;;;;2.90;1.52;;;;;;;15.47;64.17;98489.86;1758237;80;21072;-42
2021/09/19 04:48:25;;;;;;;1.45;1.22;;;;;;;15.46;64.20;98485.57;1771732;80;20997;-41
2021/09/19 04:50:51;;;;;;;2.02;1.40;;;;;;;15.46;64.16;98489.08;1782127;80;21793;-41
2021/09/19 04:53:18;;;;;;;1.77;1.20;;;;;;;15.47;64.11;98490.63;1778824;80;21076;-42
2021/09/19 04:55:45;;;;;;;2.65;1.82;;;;;;;15.48;64.49;98496.88;1749594;82;21053;-42
2021/09/19 04:58:11;;;;;;;2.77;1.40;;;;;;;15.45;64.64;98495.72;1749696;82;21348;-41
2021/09/19 05:00:39;;;;;;;2.87;1.20;;;;;;;15.44;64.32;98490.69;1772869;80;21131;-41
2021/09/19 05:03:06;;;;;;;1.60;1.20;;;;;;;15.41;64.72;98494.23;1780635;80;21141;-42
2021/09/19 05:05:34;;;;;;;2.35;1.37;;;;;;;15.45;64.94;98493.58;1781979;80;21885;-42
2021/09/19 05:08:01;;;;;;;3.67;1.55;;;;;;;15.49;64.95;98488.86;1758646;80;20950;-42
2021/09/19 05:10:29;;;;;;;2.17;1.40;;;;;;;15.48;64.76;98487.31;1733145;82;21012;-41
2021/09/19 05:12:56;;;;;;;2.20;1.60;;;;;;;15.47;64.62;98488.48;1782187;80;21084;-41
2021/09/19 05:15:23;;;;;;;2.90;1.50;;;;;;;15.45;64.78;98486.75;1782242;80;21864;-41
2021/09/19 05:17:51;;;;;;;2.25;1.42;;;;;;;15.44;64.96;98483.86;1774124;80;20926;-42
2021/09/19 05:20:18;;;;;;;3.35;1.65;;;;;;;15.43;65.44;98479.58;1768258;80;21080;-41
2021/09/19 05:22:44;;;;;;;2.20;1.30;;;;;;;15.44;65.40;98482.50;1748085;82;21065;-41
2021/09/19 05:25:11;;;;;;;4.72;1.30;;;;;;;15.47;65.28;98485.17;1759099;81;21049;-41
2021/09/19 05:27:39;;;;;;;2.17;1.30;;;;;;;15.52;65.27;98479.86;1771019;80;20922;-41
2021/09/19 05:30:08;;;;;;;2.42;1.55;;;;;;;15.51;65.10;98474.20;1771950;81;20953;-41
2021/09/19 05:32:35;;;;;;;2.40;1.30;;;;;;;15.51;65.33;98475.58;1772361;80;21017;-42
2021/09/19 05:35:05;;;;;;;2.75;1.50;;;;;;;15.51;65.43;98479.67;1774207;80;21025;-41
2021/09/19 05:37:32;;;;;;;3.63;1.77;;;;;;;15.50;65.69;98476.72;1771483;80;21028;-42
2021/09/19 05:39:59;;;;;;;2.45;1.35;;;;;;;15.48;65.63;98473.66;1767747;81;21898;-41
2021/09/19 05:42:27;;;;;;;5.25;1.55;;;;;;;15.49;65.41;98475.95;1768765;80;21005;-41
2021/09/19 05:44:53;;;;;;;2.52;1.40;;;;;;;15.51;65.39;98475.58;1758224;81;21039;-41
2021/09/19 05:47:22;;;;;;;2.98;1.55;;;;;;;15.53;65.33;98471.27;1758303;80;21001;-41
2021/09/19 05:49:48;;;;;;;2.70;1.50;;;;;;;15.54;65.67;98475.52;1764925;80;21056;-41
2021/09/19 05:52:17;;;;;;;3.10;1.80;;;;;;;15.54;65.84;98471.41;1773751;80;21567;-41
2021/09/19 05:54:45;;;;;;;2.80;1.72;;;;;;;15.53;65.85;98472.62;1771751;81;20974;-41
2021/09/19 05:57:11;;;;;;;3.98;1.92;;;;;;;15.52;66.02;98473.03;1771514;80;20997;-41
2021/09/19 05:59:38;;;;;;;3.17;1.60;;;;;;;15.56;66.18;98468.28;1774508;80;21090;-41
2021/09/19 06:02:08;;;;;;;2.60;1.90;;;;;;;15.61;65.95;98463.13;1774218;80;21060;-41
2021/09/19 06:04:33;;;;;;;4.03;1.82;;;;;;;15.67;65.97;98467.53;1774140;80;21161;-42
2021/09/19 06:07:00;;;;;;;3.45;1.65;;;;;;;15.71;66.02;98455.94;1776021;80;20922;-41
2021/09/19 06:09:28;;;;;;;3.80;2.00;;;;;;;15.73;65.83;98457.68;1756527;81;21526;-41
2021/09/19 06:11:57;;;;;;;3.10;1.77;;;;;;;15.74;65.98;98453.73;1767924;81;21476;-42
2021/09/19 06:14:23;;;;;;;2.37;1.70;;;;;;;15.74;66.22;98460.56;1773345;80;21036;-42
2021/09/19 06:16:50;;;;;;;2.40;1.65;;;;;;;15.78;66.09;98460.53;1769343;80;22342;-41
2021/09/19 06:19:17;;;;;;;2.60;1.65;;;;;;;15.82;65.73;98459.88;1758957;80;21994;-41
2021/09/19 06:21:45;;;;;;;3.60;1.90;;;;;;;15.83;65.74;98459.44;1775204;80;21592;-42
2021/09/19 06:24:13;;;;;;;2.98;1.98;;;;;;;15.82;65.76;98457.14;1770474;80;20921;-41
2021/09/19 06:26:40;;;;;;;3.55;1.90;;;;;;;15.81;65.64;98459.09;1782128;80;21518;-42
2021/09/19 06:29:08;;;;;;;2.85;1.70;;;;;;;15.81;65.71;98461.83;1781991;80;21001;-41
2021/09/19 06:31:35;;;;;;;1.75;1.47;;;;;;;15.80;65.62;98452.67;1771119;80;20921;-41
2021/09/19 06:34:02;;;;;;;3.90;1.40;;;;;;;15.77;65.38;98454.88;1751178;81;21530;-41
2021/09/19 06:36:29;;;;;;;2.37;1.65;;;;;;;15.77;65.18;98456.25;1766182;80;20976;-41
2021/09/19 06:38:55;;;;;;;2.27;1.50;;;;;;;15.77;64.90;98452.92;1780700;80;21664;-41
2021/09/19 06:41:22;;;;;;;2.40;1.52;;;;;;;15.79;65.09;98453.85;1771271;80;21148;-41
2021/09/19 06:43:49;;;;;;;1.85;1.40;;;;;;;15.79;65.33;98454.63;1781746;80;21024;-41
2021/09/19 06:46:16;;;;;;;3.47;1.82;;;;;;;15.82;65.15;98451.08;1781672;80;21064;-41
2021/09/19 06:48:43;;;;;;;4.53;1.95;;;;;;;15.83;65.15;98452.60;1770399;79;21472;-41
2021/09/19 06:51:10;;;;;;;4.50;2.15;;;;;;;15.82;65.08;98451.08;1779887;80;21025;-41
2021/09/19 06:53:38;;;;;;;3.72;1.87;;;;;;;15.80;65.33;98445.84;1781109;80;21013;-41
2021/09/19 06:56:05;;;;;;;3.75;2.20;;;;;;;15.79;65.52;98445.66;1781717;80;20956;-42
2021/09/19 06:58:32;;;;;;;2.15;1.92;;;;;;;15.84;65.64;98441.86;1781777;80;20952;-41
2021/09/19 07:00:59;;;;;;;3.22;2.22;;;;;;;15.92;65.54;98443.30;1782073;80;21502;-41
2021/09/19 07:03:25;;;;;;;3.10;2.15;;;;;;;15.95;65.45;98445.19;1782092;80;21016;-41
2021/09/19 07:05:52;;;;;;;4.83;2.50;;;;;;;15.97;65.56;98443.41;1782318;80;21827;-41
2021/09/19 07:08:18;;;;;;;5.67;2.90;;;;;;;15.97;65.56;98434.62;1782090;80;21812;-41
2021/09/19 07:10:46;;;;;;;5.45;2.77;;;;;;;16.00;65.83;98438.47;1774072;80;21326;-41
2021/09/19 07:13:13;;;;;;;3.72;2.87;;;;;;;16.04;65.71;98434.48;1774436;80;21005;-42
2021/09/19 07:15:43;;;;;;;3.35;2.87;;;;;;;16.12;65.57;98442.56;1775878;80;20944;-41
2021/09/19 07:18:11;;;;;;;3.52;2.87;;;;;;;16.17;65.47;98437.98;1781914;80;21055;-41
2021/09/19 07:20:37;;;;;;;5.00;3.80;;;;;;;16.17;65.55;98440.72;1781277;80;21044;-41
2021/09/19 07:23:05;;;;;;;6.15;4.22;;;;;;;16.17;65.56;98440.09;1775607;80;21027;-41
2021/09/19 07:25:33;;;;;;;5.97;4.47;;;;;;;16.12;65.71;98439.83;1773745;80;21511;-41
2021/09/19 07:28:03;;;;;;;6.67;4.28;;;;;;;16.04;65.94;98439.95;1773783;80;21095;-41
2021/09/19 07:30:31;;;;;;;5.90;3.98;;;;;;;16.05;66.13;98443.45;1773955;80;21130;-41
2021/09/19 07:32:58;;;;;;;5.05;3.72;;;;;;;16.07;66.25;98440.47;1773752;80;20917;-41
2021/09/19 07:36:52;;;;;;;4.80;3.77;;;;;;;16.20;66.43;98434.40;1824444;78;22788;-41
2021/09/19 07:39:21;;;;;;;5.45;3.45;;;;;;;16.08;66.65;98443.38;1783401;79;21164;-41
2021/09/19 07:41:52;;;;;;;4.55;3.75;;;;;;;16.12;66.80;98449.41;1784217;80;21741;-41
2021/09/19 07:44:17;;;;;;;6.05;4.00;;;;;;;16.13;66.93;98445.45;1783167;80;20972;-41
2021/09/19 07:46:44;;;;;;;4.47;3.25;;;;;;;16.14;66.97;98445.64;1777805;80;20996;-41
2021/09/19 07:49:12;;;;;;;4.15;3.25;;;;;;;16.16;67.07;98444.05;1777937;80;21019;-41
2021/09/19 07:51:40;;;;;;;7.28;4.45;;;;;;;16.21;67.02;98442.78;1782882;80;20926;-41
2021/09/19 07:54:09;;;;;;;;;;;;;;;16.24;67.04;98443.30;1786773;79;20949;-41
2021/09/19 07:56:36;;;;;;;4.40;4.00;;;;;;;16.26;67.01;98438.20;1783735;79;20117;-41
2021/09/19 07:59:03;;;;;;;5.35;3.90;;;;;;;16.18;67.26;98439.50;1772478;79;20961;-41
2021/09/19 08:01:30;;;;;;;3.75;3.33;;;;;;;16.22;67.27;98437.47;1753082;81;21570;-41
2021/09/19 08:03:57;;;;;;;7.03;3.72;;;;;;;16.02;67.27;98398.57;1762570;80;21484;-42
2021/09/19 08:06:23;;;;;;;4.85;4.20;;;;;;;16.34;66.99;98434.12;1777615;80;21100;-41
2021/09/19 08:08:52;;;;;;;5.08;4.35;;;;;;;16.38;67.11;98426.03;1751645;80;20934;-41
2021/09/19 08:11:19;;;;;;;4.83;3.92;;;;;;;16.44;67.15;98424.95;1740294;81;21464;-41
2021/09/19 08:13:47;;;;;;;5.40;4.33;;;;;;;16.52;67.47;98420.87;1753426;80;20918;-41
2021/09/19 08:16:18;;;;;;;5.35;4.37;;;;;;;16.62;67.32;98417.17;1749937;81;21064;-41
2021/09/19 08:18:44;;;;;;;6.03;4.28;;;;;;;16.73;67.34;98415.00;1749237;81;21522;-41
2021/09/19 08:21:11;;;;;;;6.12;4.60;;;;;;;16.87;67.30;98418.80;1753291;81;21626;-41
2021/09/19 08:23:38;;;;;;;5.78;4.70;;;;;;;17.04;66.73;98417.48;1752985;81;20973;-41
2021/09/19 08:26:06;;;;;;;6.00;4.70;;;;;;;17.16;66.46;98414.06;1753085;81;20969;-41
2021/09/19 08:28:32;;;;;;;8.75;5.50;;;;;;;17.26;65.88;98408.34;1753127;81;21072;-41
2021/09/19 08:31:01;;;;;;;7.47;5.42;;;;;;;17.35;65.79;98405.00;1753161;81;21040;-41
2021/09/19 08:33:27;;;;;;;6.92;5.40;;;;;;;17.46;65.31;98398.68;1765555;81;21010;-41
2021/09/19 08:35:56;;;;;;;5.97;4.55;;;;;;;17.55;65.19;98393.36;1761467;80;21028;-41
2021/09/19 08:38:23;;;;;;;5.92;4.80;;;;;;;17.63;65.22;98385.75;1755491;81;21541;-41
2021/09/19 08:40:51;;;;;;;6.00;4.50;;;;;;;17.75;63.88;98389.18;1741756;82;21021;-41
2021/09/19 08:43:18;;;;;;;7.03;4.60;;;;;;;17.78;64.15;98390.45;1742751;81;21982;-41
2021/09/19 08:45:51;;;;;;;7.90;4.75;;;;;;;17.78;63.69;98393.79;1738463;81;21076;-41
2021/09/19 08:48:19;;;;;;;6.92;4.17;;;;;;;17.73;64.03;98390.97;1755300;81;21039;-41
2021/09/19 08:50:50;;;;;;;8.25;5.17;;;;;;;17.70;63.54;98389.10;1760215;80;21015;-41
2021/09/19 08:53:17;;;;;;;7.70;5.20;;;;;;;17.54;64.08;98393.78;1760057;80;21033;-41
2021/09/19 08:55:43;;;;;;;8.35;4.67;;;;;;;17.37;65.36;98397.14;1760067;81;22049;-41
2021/09/19 08:58:10;;;;;;;6.05;4.47;;;;;;;17.31;66.04;98400.21;1753709;81;21049;-41
2021/09/19 09:00:40;;;;;;;14.63;4.95;;;;;;;17.33;66.52;98402.69;1742050;81;20954;-41
2021/09/19 09:03:12;;;;;;;6.17;3.83;;;;;;;17.32;66.70;98398.42;1742543;81;21045;-41
2021/09/19 09:05:39;;;;;;;4.65;3.85;;;;;;;17.23;66.21;98398.84;1737235;81;21084;-41
2021/09/19 09:08:07;;;;;;;6.53;3.70;;;;;;;17.03;65.83;98411.23;1740250;82;21134;-41
2021/09/19 09:10:43;;;;;;;8.88;3.65;;;;;;;16.81;66.76;98414.23;1741090;82;21031;-41
2021/09/19 09:13:24;;;;;;;3.27;2.30;;;;;;;16.62;68.28;98419.14;1742183;81;20997;-41
2021/09/19 09:16:04;;;;;;;1.75;1.37;;;;;;;16.41;68.42;98425.17;1724881;82;21040;-41
2021/09/19 09:18:43;;;;;;;3.10;1.52;;;;;;;16.25;67.37;98423.75;1741149;81;21021;-41
2021/09/19 09:21:28;;;;;;;2.60;1.47;;;;;;;16.06;68.78;98430.74;1740578;82;21130;-41
2021/09/19 09:23:57;;;;;;;2.50;1.42;;;;;;;15.96;69.34;98431.70;1740469;82;20962;-41
2021/09/19 09:26:37;;;;;;;3.42;1.00;;;;;;;15.91;69.98;98429.45;1743829;81;20957;-41
2021/09/19 09:29:15;;;;;;;1.00;0.90;;;;;;;15.91;70.27;98432.18;1747775;81;21245;-41
2021/09/19 09:31:47;;;;;;;1.40;1.05;;;;;;;15.90;69.99;98444.30;1745334;81;21599;-41
2021/09/19 09:34:20;;;;;;;0.80;0.80;;;;;;;15.74;69.82;98448.27;1736418;81;21113;-41
2021/09/19 09:36:58;;;;;;;0.75;0.70;;;;;;;15.57;70.09;98458.31;1736409;81;21554;-41
2021/09/19 09:39:47;;;;;;;2.33;0.80;;;;;;;15.50;70.34;98467.16;1740400;81;21451;-41
2021/09/19 09:42:20;;;;;;;1.10;0.80;;;;;;;15.42;69.54;98470.61;1758111;81;21024;-41
2021/09/19 09:44:51;;;;;;;0.80;0.75;;;;;;;15.24;69.60;98479.66;1760180;81;21106;-41
2021/09/19 09:47:24;;;;;;;0.90;0.80;;;;;;;14.99;69.41;98485.45;1743458;80;20923;-41
2021/09/19 09:49:58;;;;;;;0.90;0.40;;;;;;;14.77;70.18;98484.14;1741552;82;21073;-41
2021/09/19 09:52:34;;;;;;;0.75;0.70;;;;;;;14.62;70.19;98492.34;1742269;82;20985;-41
2021/09/19 09:55:05;;;;;;;2.80;0.72;;;;;;;14.48;70.30;98485.65;1740036;81;21009;-41
2021/09/19 09:57:38;;;;;;;0.70;0.70;;;;;;;14.32;70.68;98493.02;1738099;82;21079;-41
2021/09/19 10:00:09;;;;;;;3.50;0.55;;;;;;;14.16;71.15;98494.91;1738152;82;21226;-41
2021/09/19 10:02:39;;;;;;;2.72;1.27;;;;;;;14.07;70.97;98485.08;1740205;81;20963;-41
2021/09/19 10:05:07;;;;;;;2.72;0.68;;;;;;;14.05;71.32;98494.23;1739259;81;21028;-41
2021/09/19 10:07:37;;;;;;;2.15;0.70;;;;;;;14.07;71.13;98491.11;1739439;81;21017;-42
2021/09/19 10:10:07;;;;;;;0.85;0.65;;;;;;;14.01;71.47;98490.77;1742178;82;20961;-42
2021/09/19 10:12:34;;;;;;;0.60;0.60;;;;;;;13.97;71.82;98485.94;1739971;81;21127;-42
2021/09/19 10:15:00;;;;;;;1.55;0.80;;;;;;;14.00;72.19;98488.44;1749615;81;21025;-42
2021/09/19 10:17:31;;;;;;;1.98;1.17;;;;;;;14.09;72.41;98491.47;1738513;81;20937;-42
2021/09/19 10:19:58;;;;;;;1.12;0.88;;;;;;;14.12;72.17;98491.45;1740067;81;20994;-42
2021/09/19 10:22:53;;;;;;;0.95;0.85;;;;;;;14.08;72.02;98489.94;1740556;81;21515;-42
2021/09/19 10:25:40;;;;;;;1.22;0.80;;;;;;;14.03;72.56;98488.42;1741319;82;21157;-42
2021/09/19 10:28:38;;;;;;;0.70;0.70;;;;;;;14.06;72.73;98487.61;1741987;81;21515;-42
2021/09/19 10:31:18;;;;;;;3.22;0.90;;;;;;;14.20;72.59;98488.84;1730391;82;20985;-42
2021/09/19 10:34:08;;;;;;;0.72;0.70;;;;;;;14.39;72.84;98482.63;1741968;81;20965;-42
2021/09/19 10:36:49;;;;;;;0.68;0.68;;;;;;;14.52;72.33;98480.95;1742087;81;20962;-42
2021/09/19 10:39:33;;;;;;;1.75;0.98;;;;;;;14.61;71.13;98485.33;1738763;81;21131;-42
2021/09/19 10:42:26;;;;;;;3.22;0.70;;;;;;;14.68;70.99;98481.14;1735802;82;21039;-42
2021/09/19 10:44:59;;;;;;;3.35;0.90;;;;;;;14.71;70.74;98488.53;1737631;81;21032;-42
2021/09/19 10:47:45;;;;;;;1.45;0.80;;;;;;;14.67;70.83;98485.05;1740258;81;20990;-42
2021/09/19 10:50:27;;;;;;;1.00;0.78;;;;;;;14.67;71.34;98482.31;1740412;82;21019;-42
2021/09/19 10:53:02;;;;;;;0.50;0.47;;;;;;;14.68;70.87;98489.33;1740620;82;21155;-42
2021/09/19 10:55:36;;;;;;;1.00;0.78;;;;;;;14.69;70.59;98490.88;1745975;81;21012;-42
2021/09/19 10:58:13;;;;;;;1.55;0.90;;;;;;;14.70;70.52;98488.34;1752426;80;21080;-42
2021/09/19 11:00:43;;;;;;;0.75;0.65;;;;;;;14.69;70.71;98490.29;1738224;81;21488;-42
2021/09/19 11:03:16;;;;;;;0.80;0.60;;;;;;;14.68;70.62;98492.83;1738158;82;21005;-42
2021/09/19 11:05:49;;;;;;;2.25;0.60;;;;;;;14.71;69.99;98498.08;1736832;82;21259;-42
2021/09/19 11:08:24;;;;;;;1.87;0.70;;;;;;;14.74;70.38;98495.89;1738294;82;21015;-42
2021/09/19 11:11:03;;;;;;;0.70;0.68;;;;;;;14.77;70.05;98486.88;1739697;82;20950;-42
2021/09/19 11:13:54;;;;;;;0.53;0.53;;;;;;;14.78;69.84;98491.16;1742070;81;21092;-42
2021/09/19 11:16:30;;;;;;;0.60;0.60;;;;;;;14.80;69.54;98487.45;1741366;82;21005;-42
2021/09/19 11:19:00;;;;;;;0.40;0.40;;;;;;;14.80;69.28;98490.17;1712435;83;21949;-42
2021/09/19 11:21:36;;;;;;;0.93;0.60;;;;;;;14.81;69.33;98483.54;1712422;82;21045;-42
2021/09/19 11:24:09;;;;;;;0.53;0.53;;;;;;;14.86;68.65;98485.05;1701997;84;20984;-42
2021/09/19 11:26:40;;;;;;;0.60;0.50;;;;;;;14.86;68.74;98478.99;1701973;84;21092;-42
2021/09/19 11:29:18;;;;;;;0.60;0.60;;;;;;;14.86;68.88;98478.99;1727812;81;21013;-42
2021/09/19 11:31:46;;;;;;;0.80;0.62;;;;;;;14.87;68.51;98475.06;1729074;81;21147;-42
2021/09/19 11:34:18;;;;;;;0.50;0.40;;;;;;;14.89;68.17;98479.53;1738128;82;20964;-42
2021/09/19 11:36:51;;;;;;;0.37;0.35;;;;;;;14.94;68.26;98475.57;1742884;81;21541;-42
2021/09/19 11:39:18;;;;;;;0.60;0.60;;;;;;;15.02;68.99;98472.92;1750613;81;21028;-42
2021/09/19 11:41:45;;;;;;;0.70;0.70;;;;;;;15.08;68.57;98465.23;1751787;81;21029;-42
2021/09/19 11:44:13;;;;;;;2.17;0.80;;;;;;;15.15;68.50;98460.28;1752665;81;21134;-42